Time;durP1;ratioP1;P1;durP2;ratioP2;P2;SDS_P1;SDS_P2;PMS_P1;PMS_P2;Temp;Humidity;BMP_temperature;BMP_pressure;BME280_temperature;BME280_humidity;BME280_pressure;Samples;Min_cycle;Max_cycle;Signal;HPM_P1;HPM_P2
2021/12/14 00:01:22;;;;;;;7.03;3.40;;;;;;;;;;6220858;22;20020;-43
2021/12/14 00:03:50;;;;;;;8.70;4.35;;;;;;;;;;6219132;22;20042;-44
2021/12/14 00:06:16;;;;;;;6.32;3.83;;;;;;;;;;6219557;22;20035;-44
2021/12/14 00:09:23;;;;;;;5.35;3.35;;;;;;;;;;6224525;22;20381;-45
2021/12/14 00:14:25;;;;;;;4.28;3.63;;;;;;;;;;6218777;22;20012;-44
2021/12/14 00:16:54;;;;;;;5.43;3.42;;;;;;;;;;6219278;22;20012;-44
2021/12/14 00:19:20;;;;;;;5.63;3.53;;;;;;;;;;6220541;22;20075;-44
2021/12/14 00:21:50;;;;;;;4.90;3.55;;;;;;;;;;6225333;22;20012;-45
2021/12/14 00:24:16;;;;;;;3.67;3.30;;;;;;;;;;6222136;22;20062;-43
2021/12/14 00:26:45;;;;;;;4.50;3.55;;;;;;;;;;6218345;22;20039;-44
2021/12/14 00:29:14;;;;;;;5.82;4.55;;;;;;;;;;6218050;22;20024;-44
2021/12/14 00:31:39;;;;;;;4.87;3.70;;;;;;;;;;6224049;22;20028;-45
2021/12/14 00:34:06;;;;;;;5.30;3.78;;;;;;;;;;6223704;22;20023;-46
2021/12/14 00:36:31;;;;;;;6.22;4.55;;;;;;;;;;6218817;22;20449;-45
2021/12/14 00:38:57;;;;;;;5.55;3.53;;;;;;;;;;6228110;22;20035;-43
2021/12/14 00:41:31;;;;;;;7.13;4.32;;;;;;;;;;6236237;22;20012;-44
2021/12/14 00:43:57;;;;;;;6.85;4.13;;;;;;;;;;6236655;22;20023;-46
2021/12/14 00:46:22;;;;;;;5.70;3.92;;;;;;;;;;6235947;22;20034;-45
2021/12/14 00:48:49;;;;;;;4.63;3.50;;;;;;;;;;6236155;22;20020;-45
2021/12/14 00:51:14;;;;;;;4.75;3.65;;;;;;;;;;6235938;22;20103;-44
2021/12/14 00:53:40;;;;;;;4.65;3.33;;;;;;;;;;6236242;22;20092;-44
2021/12/14 00:56:07;;;;;;;4.25;3.13;;;;;;;;;;6236553;22;20492;-43
2021/12/14 00:58:32;;;;;;;7.18;4.40;;;;;;;;;;6235550;22;20004;-43
2021/12/14 01:01:10;;;;;;;8.05;4.22;;;;;;;;;;6236608;22;20356;-44
2021/12/14 01:03:36;;;;;;;6.07;4.47;;;;;;;;;;6236253;22;20027;-45
2021/12/14 01:06:02;;;;;;;6.45;3.90;;;;;;;;;;6236352;22;20020;-43
2021/12/14 01:08:31;;;;;;;6.07;4.45;;;;;;;;;;6235992;22;20016;-44
2021/12/14 01:11:03;;;;;;;9.13;4.82;;;;;;;;;;6236116;22;20012;-43
2021/12/14 01:13:30;;;;;;;6.40;3.50;;;;;;;;;;6236302;22;20027;-44
2021/12/14 01:18:32;;;;;;;5.68;4.32;;;;;;;;;;6235861;22;20040;-43
2021/12/14 01:21:10;;;;;;;12.30;4.88;;;;;;;;;;6236111;22;20511;-47
2021/12/14 01:23:35;;;;;;;8.23;4.55;;;;;;;;;;6223744;22;20452;-45
2021/12/14 01:26:06;;;;;;;5.13;4.00;;;;;;;;;;6223395;22;20145;-45
2021/12/14 01:28:32;;;;;;;6.50;3.75;;;;;;;;;;6218473;22;20031;-43
2021/12/14 01:31:12;;;;;;;7.55;4.53;;;;;;;;;;6216148;23;20711;-44
2021/12/14 01:33:41;;;;;;;9.38;4.40;;;;;;;;;;6218514;22;20111;-43
2021/12/14 01:36:21;;;;;;;7.13;4.15;;;;;;;;;;6218592;22;20023;-44
2021/12/14 01:38:58;;;;;;;9.27;4.22;;;;;;;;;;6213202;23;20012;-44
2021/12/14 01:41:23;;;;;;;6.75;4.63;;;;;;;;;;6205824;23;20016;-44
2021/12/14 01:43:51;;;;;;;5.30;4.28;;;;;;;;;;6218138;22;20019;-44
2021/12/14 01:46:22;;;;;;;8.85;4.80;;;;;;;;;;6219300;22;20044;-44
2021/12/14 01:48:47;;;;;;;10.93;5.25;;;;;;;;;;6223645;22;20079;-45
2021/12/14 01:51:12;;;;;;;7.68;4.32;;;;;;;;;;6221818;22;20420;-45
2021/12/14 01:53:40;;;;;;;5.65;4.55;;;;;;;;;;6218278;22;20892;-45
2021/12/14 01:56:08;;;;;;;9.02;5.80;;;;;;;;;;6217725;22;20013;-44
2021/12/14 01:58:38;;;;;;;6.65;3.80;;;;;;;;;;6222827;22;20051;-45
2021/12/14 02:01:06;;;;;;;6.72;4.65;;;;;;;;;;6223073;22;20457;-45
2021/12/14 02:03:37;;;;;;;10.25;4.55;;;;;;;;;;6218378;22;20015;-45
2021/12/14 02:06:03;;;;;;;10.15;4.53;;;;;;;;;;6217905;22;20095;-44
2021/12/14 02:08:32;;;;;;;5.43;4.60;;;;;;;;;;6221376;22;20009;-46
2021/12/14 02:10:58;;;;;;;8.70;4.35;;;;;;;;;;6222891;22;20005;-46
2021/12/14 02:13:28;;;;;;;9.38;4.97;;;;;;;;;;6220165;22;20126;-46
2021/12/14 02:15:53;;;;;;;8.73;4.95;;;;;;;;;;6217711;22;20019;-44
2021/12/14 02:18:20;;;;;;;8.20;4.93;;;;;;;;;;6219248;22;20017;-44
2021/12/14 02:20:47;;;;;;;10.77;6.55;;;;;;;;;;6222877;22;20008;-44
2021/12/14 02:23:12;;;;;;;6.97;4.40;;;;;;;;;;6222339;22;20098;-44
2021/12/14 02:25:38;;;;;;;10.10;4.88;;;;;;;;;;6217386;22;20150;-44
2021/12/14 02:28:05;;;;;;;10.02;4.70;;;;;;;;;;6217847;22;20015;-45
2021/12/14 02:30:31;;;;;;;23.17;4.82;;;;;;;;;;6219240;22;20043;-43
2021/12/14 02:32:57;;;;;;;10.75;4.90;;;;;;;;;;6223101;22;20016;-44
2021/12/14 02:35:25;;;;;;;9.85;5.28;;;;;;;;;;6219974;22;20032;-44
2021/12/14 02:37:53;;;;;;;7.90;4.70;;;;;;;;;;6216164;23;20020;-44
2021/12/14 02:40:20;;;;;;;9.82;5.28;;;;;;;;;;6202209;23;20024;-44
2021/12/14 02:42:48;;;;;;;11.90;5.00;;;;;;;;;;6218375;22;20009;-45
2021/12/14 02:45:13;;;;;;;6.60;4.47;;;;;;;;;;6217466;22;20017;-44
2021/12/14 02:47:39;;;;;;;7.80;5.00;;;;;;;;;;6222206;22;20004;-43
2021/12/14 02:50:05;;;;;;;7.47;4.85;;;;;;;;;;6221994;22;20028;-44
2021/12/14 02:52:35;;;;;;;12.75;5.60;;;;;;;;;;6218855;22;20025;-43
2021/12/14 02:55:06;;;;;;;11.50;5.45;;;;;;;;;;6217358;22;20021;-45
2021/12/14 02:57:33;;;;;;;9.82;4.78;;;;;;;;;;6222533;22;20087;-45
2021/12/14 02:59:59;;;;;;;10.45;4.95;;;;;;;;;;6222528;22;20099;-43
2021/12/14 03:02:27;;;;;;;9.60;5.22;;;;;;;;;;6219220;22;20051;-43
2021/12/14 03:04:57;;;;;;;9.77;5.50;;;;;;;;;;6217988;22;20036;-44
2021/12/14 03:07:25;;;;;;;11.57;5.60;;;;;;;;;;6219800;22;20025;-44
2021/12/14 03:09:59;;;;;;;11.90;6.28;;;;;;;;;;6222079;22;20012;-44
2021/12/14 03:12:33;;;;;;;12.27;6.10;;;;;;;;;;6218633;22;20073;-43
2021/12/14 03:15:02;;;;;;;12.80;5.68;;;;;;;;;;6218052;22;20009;-44
2021/12/14 03:17:27;;;;;;;9.13;5.85;;;;;;;;;;6220360;22;20386;-44
2021/12/14 03:19:54;;;;;;;11.02;6.00;;;;;;;;;;6222419;22;20032;-45
2021/12/14 03:22:22;;;;;;;7.60;4.97;;;;;;;;;;6219751;22;20024;-44
2021/12/14 03:24:48;;;;;;;12.45;5.40;;;;;;;;;;6218022;22;20521;-45
2021/12/14 03:27:13;;;;;;;8.32;5.13;;;;;;;;;;6217540;22;20092;-44
2021/12/14 03:29:38;;;;;;;7.53;5.40;;;;;;;;;;6223039;22;20014;-44
2021/12/14 03:32:04;;;;;;;11.63;5.68;;;;;;;;;;6222850;22;20016;-44
2021/12/14 03:34:34;;;;;;;13.90;5.70;;;;;;;;;;6218743;22;20456;-44
2021/12/14 03:37:10;;;;;;;11.00;5.57;;;;;;;;;;6217822;22;20445;-45
2021/12/14 03:39:40;;;;;;;14.77;5.75;;;;;;;;;;6234542;22;20468;-45
2021/12/14 03:42:05;;;;;;;;;;;;;;;;;;6234844;22;20012;-44
2021/12/14 03:44:34;;;;;;;7.05;5.03;;;;;;;;;;6234626;22;19945;-44
2021/12/14 03:47:07;;;;;;;9.68;5.65;;;;;;;;;;6235689;22;20020;-45
2021/12/14 03:49:35;;;;;;;12.40;5.25;;;;;;;;;;6234251;22;20047;-44
2021/12/14 03:52:00;;;;;;;13.13;5.32;;;;;;;;;;6235954;22;20013;-43
2021/12/14 03:54:26;;;;;;;8.48;5.30;;;;;;;;;;6234456;22;20010;-46
2021/12/14 03:56:51;;;;;;;12.55;5.38;;;;;;;;;;6235268;22;20020;-43
2021/12/14 03:59:16;;;;;;;8.00;5.10;;;;;;;;;;6234625;22;20004;-44
2021/12/14 04:01:43;;;;;;;12.13;5.85;;;;;;;;;;6236303;22;20475;-43
2021/12/14 04:04:16;;;;;;;5.57;3.75;;;;;;;;;;6237069;22;20012;-44
2021/12/14 04:06:43;;;;;;;6.47;4.10;;;;;;;;;;6236683;22;20059;-44
2021/12/14 04:09:09;;;;;;;8.73;5.10;;;;;;;;;;6236791;22;20008;-44
2021/12/14 04:11:34;;;;;;;7.22;4.85;;;;;;;;;;6236745;22;20040;-44
2021/12/14 04:14:00;;;;;;;6.05;4.20;;;;;;;;;;6236559;22;20325;-44
2021/12/14 04:16:26;;;;;;;10.35;5.30;;;;;;;;;;6236559;22;20091;-44
2021/12/14 04:18:52;;;;;;;10.35;5.13;;;;;;;;;;6236535;22;20375;-44
2021/12/14 04:21:19;;;;;;;6.93;4.32;;;;;;;;;;6236896;22;20023;-44
2021/12/14 04:23:47;;;;;;;13.10;5.20;;;;;;;;;;6234095;22;20091;-44
2021/12/14 04:26:13;;;;;;;7.40;4.45;;;;;;;;;;6236141;22;20051;-45
2021/12/14 04:28:44;;;;;;;8.65;4.75;;;;;;;;;;6236466;22;20338;-44
2021/12/14 04:31:10;;;;;;;10.63;5.53;;;;;;;;;;6235201;22;20412;-44
2021/12/14 04:33:36;;;;;;;12.85;4.90;;;;;;;;;;6234861;22;20476;-44
2021/12/14 04:36:07;;;;;;;12.93;4.93;;;;;;;;;;6234236;23;20011;-43
2021/12/14 04:38:37;;;;;;;9.88;4.20;;;;;;;;;;6235611;22;20023;-44
2021/12/14 04:51:59;;;;;;;9.60;5.20;;;;;;;;;;6235769;22;20031;-44
2021/12/14 04:54:47;;;;;;;9.75;5.65;;;;;;;;;;6235517;22;20016;-43
2021/12/14 04:57:21;;;;;;;11.00;5.22;;;;;;;;;;6223453;22;20111;-44
2021/12/14 04:59:48;;;;;;;9.00;5.40;;;;;;;;;;6235446;22;20090;-43
2021/12/14 05:02:15;;;;;;;13.60;5.35;;;;;;;;;;6235802;22;20016;-45
2021/12/14 05:04:41;;;;;;;9.40;4.97;;;;;;;;;;6235924;22;20013;-45
2021/12/14 05:07:28;;;;;;;9.20;5.15;;;;;;;;;;6235464;22;20035;-46
2021/12/14 05:09:52;;;;;;;7.88;4.93;;;;;;;;;;6234613;22;20103;-44
2021/12/14 05:12:22;;;;;;;8.25;4.75;;;;;;;;;;6235345;22;20016;-44
2021/12/14 05:14:48;;;;;;;8.20;4.85;;;;;;;;;;6235884;22;20033;-44
2021/12/14 05:17:15;;;;;;;10.25;5.07;;;;;;;;;;6235050;22;20036;-44
2021/12/14 05:19:43;;;;;;;10.15;5.28;;;;;;;;;;6235429;22;20381;-45
2021/12/14 05:22:16;;;;;;;6.43;3.85;;;;;;;;;;6235526;22;20395;-46
2021/12/14 05:24:44;;;;;;;6.65;4.90;;;;;;;;;;6235162;22;20529;-44
2021/12/14 05:27:10;;;;;;;10.63;5.35;;;;;;;;;;6235679;22;20027;-45
2021/12/14 05:29:35;;;;;;;13.18;4.65;;;;;;;;;;6222679;22;20012;-44
2021/12/14 05:32:02;;;;;;;12.38;4.53;;;;;;;;;;6223862;22;20014;-44
2021/12/14 05:34:30;;;;;;;9.20;4.90;;;;;;;;;;6218347;22;20015;-44
2021/12/14 05:36:56;;;;;;;7.05;4.20;;;;;;;;;;6217730;22;20016;-45
2021/12/14 05:44:35;;;;;;;7.53;4.18;;;;;;;;;;6216866;22;20016;-44
2021/12/14 05:47:03;;;;;;;10.13;4.57;;;;;;;;;;6218046;22;20020;-45
2021/12/14 05:49:28;;;;;;;8.95;4.03;;;;;;;;;;6221752;22;20023;-44
2021/12/14 05:51:54;;;;;;;7.38;4.57;;;;;;;;;;6222482;22;20020;-44
2021/12/14 05:54:26;;;;;;;11.35;4.43;;;;;;;;;;6221239;22;20020;-44
2021/12/14 05:56:52;;;;;;;6.55;3.97;;;;;;;;;;6217656;22;20027;-44
2021/12/14 05:59:18;;;;;;;8.70;3.90;;;;;;;;;;6219690;22;20013;-44
2021/12/14 06:01:44;;;;;;;8.35;4.00;;;;;;;;;;6222887;22;20024;-46
2021/12/14 06:04:09;;;;;;;14.40;3.92;;;;;;;;;;6223144;22;20012;-43
2021/12/14 06:06:41;;;;;;;5.85;3.55;;;;;;;;;;6217776;22;20009;-44
2021/12/14 06:09:17;;;;;;;10.32;3.80;;;;;;;;;;6218455;22;20020;-44
2021/12/14 06:11:43;;;;;;;8.85;3.50;;;;;;;;;;6216999;22;20008;-44
2021/12/14 06:14:17;;;;;;;10.25;4.63;;;;;;;;;;6216429;23;20344;-45
2021/12/14 06:16:45;;;;;;;11.98;3.88;;;;;;;;;;6223279;22;20016;-44
2021/12/14 06:19:16;;;;;;;7.82;3.97;;;;;;;;;;6222328;22;20008;-44
2021/12/14 06:21:42;;;;;;;8.38;3.95;;;;;;;;;;6218210;22;20005;-44
2021/12/14 06:24:09;;;;;;;10.35;3.50;;;;;;;;;;6215929;23;20545;-43
2021/12/14 06:26:49;;;;;;;6.60;3.90;;;;;;;;;;6205191;23;20008;-45
2021/12/14 06:29:17;;;;;;;8.35;3.83;;;;;;;;;;6218067;22;20020;-46
2021/12/14 06:31:42;;;;;;;7.97;3.75;;;;;;;;;;6222714;22;20008;-44
2021/12/14 06:34:15;;;;;;;4.18;3.70;;;;;;;;;;6223258;22;20090;-44
2021/12/14 06:36:51;;;;;;;7.28;3.35;;;;;;;;;;6217270;22;20013;-44
2021/12/14 06:39:17;;;;;;;8.15;4.90;;;;;;;;;;6219220;22;20099;-44
2021/12/14 06:41:42;;;;;;;9.40;4.43;;;;;;;;;;6222266;22;20031;-44
2021/12/14 06:44:07;;;;;;;6.22;3.70;;;;;;;;;;6223021;22;20020;-44
2021/12/14 06:46:38;;;;;;;8.98;4.40;;;;;;;;;;6216674;22;20043;-44
2021/12/14 06:49:11;;;;;;;7.43;3.85;;;;;;;;;;6217966;22;20012;-44
2021/12/14 06:51:36;;;;;;;8.43;4.57;;;;;;;;;;6216529;22;20020;-45
2021/12/14 06:54:03;;;;;;;8.07;4.40;;;;;;;;;;6218080;22;20023;-45
2021/12/14 06:56:29;;;;;;;8.20;3.63;;;;;;;;;;6220826;22;20349;-44
2021/12/14 06:58:56;;;;;;;12.55;4.05;;;;;;;;;;6223213;22;20016;-50
2021/12/14 07:01:23;;;;;;;9.15;4.00;;;;;;;;;;6219411;22;20399;-44
2021/12/14 07:03:50;;;;;;;9.68;4.03;;;;;;;;;;6217221;22;20024;-44
2021/12/14 07:06:27;;;;;;;8.93;5.10;;;;;;;;;;6218622;22;20039;-46
2021/12/14 07:08:54;;;;;;;8.00;3.75;;;;;;;;;;6222617;22;20016;-45
2021/12/14 07:11:21;;;;;;;12.80;5.03;;;;;;;;;;6219254;22;20017;-45
2021/12/14 07:13:47;;;;;;;12.32;3.92;;;;;;;;;;6217752;22;20345;-45
2021/12/14 07:16:19;;;;;;;6.13;4.35;;;;;;;;;;6217493;22;20020;-44
2021/12/14 07:18:47;;;;;;;8.80;3.78;;;;;;;;;;6223544;22;20028;-43
2021/12/14 07:21:12;;;;;;;11.63;3.83;;;;;;;;;;6220639;22;20082;-45
2021/12/14 07:23:37;;;;;;;9.98;4.20;;;;;;;;;;6218159;22;20005;-45
2021/12/14 07:26:10;;;;;;;8.15;4.05;;;;;;;;;;6217394;22;20025;-46
2021/12/14 07:28:37;;;;;;;6.63;4.53;;;;;;;;;;6217641;22;20016;-44
2021/12/14 07:31:12;;;;;;;7.72;3.60;;;;;;;;;;6217259;22;20372;-44
2021/12/14 07:33:42;;;;;;;7.85;3.55;;;;;;;;;;6217837;22;20043;-44
2021/12/14 07:36:12;;;;;;;8.68;4.63;;;;;;;;;;6217212;22;20465;-44
2021/12/14 07:38:43;;;;;;;9.90;3.95;;;;;;;;;;6207122;23;20069;-44
2021/12/14 07:41:30;;;;;;;8.43;4.32;;;;;;;;;;6219041;22;20115;-46
2021/12/14 07:43:55;;;;;;;5.85;3.58;;;;;;;;;;6217769;22;20013;-45
2021/12/14 07:46:23;;;;;;;8.63;3.92;;;;;;;;;;6208083;22;20015;-44
2021/12/14 07:48:50;;;;;;;7.28;3.70;;;;;;;;;;6223284;22;20054;-44
2021/12/14 07:51:17;;;;;;;10.57;3.67;;;;;;;;;;6223798;22;20110;-44
2021/12/14 07:53:45;;;;;;;8.23;3.17;;;;;;;;;;6218767;22;20020;-45
2021/12/14 07:56:21;;;;;;;7.30;4.10;;;;;;;;;;6219572;22;20012;-43
2021/12/14 07:58:48;;;;;;;9.60;4.10;;;;;;;;;;6219330;22;20016;-44
2021/12/14 08:01:13;;;;;;;11.82;4.50;;;;;;;;;;6219011;22;20004;-45
2021/12/14 08:03:39;;;;;;;6.90;4.22;;;;;;;;;;6223999;22;20381;-44
2021/12/14 08:06:06;;;;;;;7.05;4.38;;;;;;;;;;6224686;22;20027;-44
2021/12/14 08:08:42;;;;;;;7.60;4.10;;;;;;;;;;6220724;22;20016;-46
2021/12/14 08:13:55;;;;;;;7.97;4.32;;;;;;;;;;6237048;22;20095;-43
2021/12/14 08:16:20;;;;;;;7.70;3.85;;;;;;;;;;6235666;22;20114;-43
2021/12/14 08:18:45;;;;;;;6.95;4.50;;;;;;;;;;6236719;22;20062;-45
2021/12/14 08:21:12;;;;;;;8.65;4.03;;;;;;;;;;6236739;22;20016;-46
2021/12/14 08:23:42;;;;;;;6.95;4.43;;;;;;;;;;6236624;22;20182;-45
2021/12/14 08:26:13;;;;;;;7.95;3.60;;;;;;;;;;6236651;22;20028;-44
2021/12/14 08:29:05;;;;;;;7.20;4.18;;;;;;;;;;6236769;22;20345;-43
2021/12/14 08:31:39;;;;;;;7.57;3.92;;;;;;;;;;6231305;22;20016;-46
2021/12/14 08:34:06;;;;;;;9.43;4.65;;;;;;;;;;6236276;22;20016;-43
2021/12/14 08:36:36;;;;;;;9.43;4.10;;;;;;;;;;6236472;22;20096;-45
2021/12/14 08:39:21;;;;;;;7.82;3.83;;;;;;;;;;6236993;22;20014;-45
2021/12/14 08:41:59;;;;;;;10.93;4.35;;;;;;;;;;6223138;22;20012;-44
2021/12/14 08:44:35;;;;;;;9.60;5.22;;;;;;;;;;6221760;22;20008;-44
2021/12/14 08:47:02;;;;;;;6.03;3.90;;;;;;;;;;6218351;22;20341;-44
2021/12/14 08:49:27;;;;;;;9.55;3.53;;;;;;;;;;6220597;22;20441;-45
2021/12/14 08:51:53;;;;;;;9.57;3.97;;;;;;;;;;6219216;22;20024;-44
2021/12/14 08:54:25;;;;;;;7.43;3.80;;;;;;;;;;6220325;22;20420;-43
2021/12/14 08:57:13;;;;;;;12.07;4.43;;;;;;;;;;6216346;22;20028;-44
2021/12/14 08:59:40;;;;;;;8.70;3.83;;;;;;;;;;6221059;22;20004;-43
2021/12/14 09:02:07;;;;;;;6.35;3.25;;;;;;;;;;6220159;22;20004;-43
2021/12/14 09:04:35;;;;;;;12.25;4.65;;;;;;;;;;6217515;22;20016;-44
2021/12/14 09:07:03;;;;;;;8.77;4.18;;;;;;;;;;6215843;22;20027;-44
2021/12/14 09:09:29;;;;;;;9.60;4.18;;;;;;;;;;6218655;22;20509;-44
2021/12/14 09:12:15;;;;;;;4.97;3.30;;;;;;;;;;6210402;22;20082;-44
2021/12/14 09:14:41;;;;;;;5.43;3.75;;;;;;;;;;6214812;22;20467;-44
2021/12/14 09:17:08;;;;;;;8.93;3.38;;;;;;;;;;6215110;22;20024;-43
2021/12/14 09:19:35;;;;;;;3.70;3.20;;;;;;;;;;6212520;22;20095;-47
2021/12/14 09:22:03;;;;;;;8.25;3.47;;;;;;;;;;6212213;22;20012;-43
2021/12/14 09:24:29;;;;;;;8.77;4.10;;;;;;;;;;6213882;22;20028;-44
2021/12/14 09:26:57;;;;;;;4.65;3.97;;;;;;;;;;6216732;22;20543;-43
2021/12/14 09:29:24;;;;;;;11.82;4.28;;;;;;;;;;6216100;22;20016;-46
2021/12/14 09:31:51;;;;;;;8.40;6.13;;;;;;;;;;6211517;22;20100;-43
2021/12/14 09:34:18;;;;;;;8.00;4.72;;;;;;;;;;6212388;22;20020;-45
2021/12/14 09:36:44;;;;;;;8.48;5.30;;;;;;;;;;6216574;22;20005;-45
2021/12/14 09:39:17;;;;;;;6.35;4.18;;;;;;;;;;6217029;22;20008;-44
2021/12/14 09:41:45;;;;;;;6.32;5.43;;;;;;;;;;6211000;22;20016;-47
2021/12/14 09:44:11;;;;;;;9.20;4.40;;;;;;;;;;6212490;22;20009;-45
2021/12/14 09:46:37;;;;;;;8.23;4.45;;;;;;;;;;6214890;22;20020;-46
2021/12/14 09:49:04;;;;;;;6.95;4.60;;;;;;;;;;6217701;22;20008;-45
2021/12/14 09:51:32;;;;;;;7.93;4.85;;;;;;;;;;6212226;22;20032;-47
2021/12/14 09:53:58;;;;;;;10.50;4.30;;;;;;;;;;6212626;22;20012;-44
2021/12/14 09:56:26;;;;;;;5.35;3.90;;;;;;;;;;6213950;22;20050;-45
2021/12/14 09:58:58;;;;;;;7.47;3.58;;;;;;;;;;6216698;22;20391;-47
2021/12/14 10:01:28;;;;;;;5.72;4.03;;;;;;;;;;6214437;22;20122;-44
2021/12/14 10:03:55;;;;;;;5.78;3.78;;;;;;;;;;6213126;22;20024;-45
2021/12/14 10:06:24;;;;;;;7.65;5.72;;;;;;;;;;6212787;22;20023;-44
2021/12/14 10:08:52;;;;;;;4.60;4.10;;;;;;;;;;6215853;22;20015;-45
2021/12/14 10:11:26;;;;;;;10.07;4.55;;;;;;;;;;6217285;22;20234;-44
2021/12/14 10:13:53;;;;;;;4.88;4.38;;;;;;;;;;6212275;22;20528;-44
2021/12/14 10:16:18;;;;;;;12.73;4.53;;;;;;;;;;6211828;22;20012;-43
2021/12/14 10:18:46;;;;;;;6.50;4.78;;;;;;;;;;6215778;22;20371;-44
2021/12/14 10:21:14;;;;;;;9.63;5.40;;;;;;;;;;6218037;22;20012;-44
2021/12/14 10:23:41;;;;;;;8.38;4.68;;;;;;;;;;6210498;22;20554;-43
2021/12/14 10:26:07;;;;;;;8.18;4.57;;;;;;;;;;6212552;22;20017;-43
2021/12/14 10:28:34;;;;;;;8.10;3.80;;;;;;;;;;6214470;22;20086;-44
2021/12/14 10:31:02;;;;;;;7.10;4.18;;;;;;;;;;6216697;22;20550;-44
2021/12/14 10:33:28;;;;;;;6.38;3.67;;;;;;;;;;6214826;22;20012;-45
2021/12/14 10:35:57;;;;;;;6.35;3.83;;;;;;;;;;6210876;22;20017;-45
2021/12/14 10:38:36;;;;;;;7.68;3.88;;;;;;;;;;6211605;22;20017;-45
2021/12/14 10:43:48;;;;;;;6.45;3.63;;;;;;;;;;6211359;22;20565;-44
2021/12/14 10:46:19;;;;;;;7.20;3.33;;;;;;;;;;6211125;22;20032;-44
2021/12/14 10:48:46;;;;;;;7.60;3.70;;;;;;;;;;6211587;22;20004;-43
2021/12/14 10:51:12;;;;;;;4.05;3.08;;;;;;;;;;6211255;22;20024;-46
2021/12/14 10:53:42;;;;;;;7.32;3.30;;;;;;;;;;6215436;22;20016;-44
2021/12/14 10:56:13;;;;;;;8.45;2.97;;;;;;;;;;6204563;23;20019;-47
2021/12/14 10:58:38;;;;;;;7.57;2.90;;;;;;;;;;6198766;23;20043;-47
2021/12/14 11:01:10;;;;;;;6.60;2.85;;;;;;;;;;6210526;22;20465;-45
2021/12/14 11:03:42;;;;;;;5.28;2.90;;;;;;;;;;6214484;22;20101;-45
2021/12/14 11:06:12;;;;;;;9.93;3.38;;;;;;;;;;6217480;22;20074;-43
2021/12/14 11:08:56;;;;;;;4.22;2.78;;;;;;;;;;6210771;22;20016;-44
2021/12/14 11:11:30;;;;;;;4.40;2.90;;;;;;;;;;6214299;22;20255;-48
2021/12/14 11:14:01;;;;;;;7.00;3.72;;;;;;;;;;6214343;22;20263;-47
2021/12/14 11:19:13;;;;;;;2.92;2.28;;;;;;;;;;6180373;22;20016;-44
2021/12/14 11:21:39;;;;;;;6.80;2.58;;;;;;;;;;6213284;22;20353;-43
2021/12/14 11:24:04;;;;;;;5.68;3.05;;;;;;;;;;6213255;22;20095;-45
2021/12/14 11:26:35;;;;;;;3.25;2.08;;;;;;;;;;6215330;22;20024;-46
2021/12/14 11:29:04;;;;;;;3.92;2.08;;;;;;;;;;6218062;22;20034;-48
2021/12/14 11:31:35;;;;;;;3.00;2.35;;;;;;;;;;6215636;22;20009;-44
2021/12/14 11:34:07;;;;;;;4.85;2.85;;;;;;;;;;6212957;22;20013;-46
2021/12/14 11:36:37;;;;;;;4.00;2.08;;;;;;;;;;6216533;22;20016;-45
2021/12/14 11:39:08;;;;;;;1.98;1.70;;;;;;;;;;6218437;22;20085;-45
2021/12/14 11:41:33;;;;;;;2.95;1.98;;;;;;;;;;6213696;22;20015;-43
2021/12/14 11:43:59;;;;;;;1.90;1.70;;;;;;;;;;6213305;22;20021;-46
2021/12/14 11:46:24;;;;;;;3.80;2.03;;;;;;;;;;6214411;22;20052;-44
2021/12/14 11:48:55;;;;;;;4.40;1.77;;;;;;;;;;6210261;23;20598;-46
2021/12/14 11:51:22;;;;;;;2.58;1.48;;;;;;;;;;6198945;23;20524;-45
2021/12/14 11:53:49;;;;;;;5.22;2.25;;;;;;;;;;6198691;23;20016;-44
2021/12/14 11:56:17;;;;;;;2.90;1.63;;;;;;;;;;6213770;22;20082;-44
2021/12/14 11:58:48;;;;;;;3.30;2.10;;;;;;;;;;6212918;22;20067;-44
2021/12/14 12:01:16;;;;;;;5.45;1.90;;;;;;;;;;6212555;22;20142;-44
2021/12/14 12:03:49;;;;;;;4.57;2.35;;;;;;;;;;6211336;23;20008;-45
2021/12/14 12:06:35;;;;;;;2.53;1.70;;;;;;;;;;6200594;23;20025;-46
2021/12/14 12:11:50;;;;;;;3.85;2.10;;;;;;;;;;6217811;22;20201;-47
2021/12/14 12:14:21;;;;;;;4.70;1.60;;;;;;;;;;6216395;22;20865;-43
2021/12/14 12:16:47;;;;;;;2.80;1.73;;;;;;;;;;6213379;22;20013;-44
2021/12/14 12:19:18;;;;;;;2.38;1.60;;;;;;;;;;6212486;22;20336;-46
2021/12/14 12:21:44;;;;;;;3.60;1.88;;;;;;;;;;6211699;22;20461;-47
2021/12/14 12:24:28;;;;;;;1.80;1.55;;;;;;;;;;6211897;22;20460;-44
2021/12/14 12:27:13;;;;;;;4.45;1.95;;;;;;;;;;6210504;23;20020;-44
2021/12/14 12:29:38;;;;;;;3.15;1.38;;;;;;;;;;6199809;23;20016;-46
2021/12/14 12:32:16;;;;;;;2.63;1.90;;;;;;;;;;6212899;22;20196;-43
2021/12/14 12:34:43;;;;;;;1.85;1.42;;;;;;;;;;6213273;22;20005;-46
2021/12/14 12:37:11;;;;;;;3.30;1.40;;;;;;;;;;6212368;22;20013;-43
2021/12/14 12:39:36;;;;;;;1.30;1.20;;;;;;;;;;6217310;22;20546;-45
2021/12/14 12:42:03;;;;;;;2.15;1.77;;;;;;;;;;6216541;22;20696;-43
2021/12/14 12:44:30;;;;;;;2.22;1.48;;;;;;;;;;6214817;22;20022;-46
2021/12/14 12:47:08;;;;;;;2.47;1.25;;;;;;;;;;6212288;22;20082;-45
2021/12/14 12:49:42;;;;;;;3.13;1.40;;;;;;;;;;6215549;22;20080;-45
2021/12/14 12:52:07;;;;;;;2.17;1.95;;;;;;;;;;6216858;22;20081;-44
2021/12/14 12:54:41;;;;;;;1.98;1.38;;;;;;;;;;6213678;22;20100;-43
2021/12/14 12:57:20;;;;;;;2.35;1.63;;;;;;;;;;6210696;23;20513;-44
2021/12/14 12:59:54;;;;;;;1.52;1.42;;;;;;;;;;6199062;23;20095;-45
2021/12/14 13:02:21;;;;;;;1.38;1.27;;;;;;;;;;6212479;22;20012;-44
2021/12/14 13:04:48;;;;;;;1.80;1.30;;;;;;;;;;6217332;22;20476;-44
2021/12/14 13:07:14;;;;;;;1.85;1.38;;;;;;;;;;6217687;22;20028;-44
2021/12/14 13:09:58;;;;;;;5.07;1.80;;;;;;;;;;6211979;22;20163;-44
2021/12/14 13:12:42;;;;;;;4.07;1.23;;;;;;;;;;6212159;22;20655;-43
2021/12/14 13:15:28;;;;;;;3.03;1.13;;;;;;;;;;6215483;22;20011;-44
2021/12/14 13:18:12;;;;;;;4.47;1.75;;;;;;;;;;6210027;22;20017;-44
2021/12/14 13:20:37;;;;;;;1.73;1.40;;;;;;;;;;6212437;22;20012;-44
2021/12/14 13:23:02;;;;;;;3.05;2.63;;;;;;;;;;6215149;22;20009;-43
2021/12/14 13:25:38;;;;;;;3.90;1.48;;;;;;;;;;6211566;22;20055;-44
2021/12/14 13:28:03;;;;;;;3.90;1.70;;;;;;;;;;6209681;22;20016;-44
2021/12/14 13:30:29;;;;;;;1.52;1.42;;;;;;;;;;6210295;22;20071;-47
2021/12/14 13:32:55;;;;;;;1.90;1.40;;;;;;;;;;6213595;22;20144;-47
2021/12/14 13:35:23;;;;;;;2.30;1.92;;;;;;;;;;6200615;22;20099;-45
2021/12/14 13:37:48;;;;;;;3.65;1.80;;;;;;;;;;6215809;22;20004;-43
2021/12/14 13:40:19;;;;;;;2.05;1.40;;;;;;;;;;6213866;22;20016;-45
2021/12/14 13:42:59;;;;;;;2.38;1.70;;;;;;;;;;6210145;22;20004;-44
2021/12/14 13:45:27;;;;;;;2.45;1.40;;;;;;;;;;6211228;22;20027;-45
2021/12/14 13:47:53;;;;;;;4.75;1.92;;;;;;;;;;6215023;22;20020;-44
2021/12/14 13:50:22;;;;;;;2.40;1.08;;;;;;;;;;6213031;22;20047;-44
2021/12/14 13:52:48;;;;;;;3.80;1.63;;;;;;;;;;6209894;22;20005;-44
2021/12/14 13:55:17;;;;;;;1.98;1.73;;;;;;;;;;6209324;22;21170;-43
2021/12/14 13:57:47;;;;;;;3.73;1.73;;;;;;;;;;6214332;22;20020;-45
2021/12/14 14:00:16;;;;;;;3.85;1.83;;;;;;;;;;6214894;22;20256;-44
2021/12/14 14:02:41;;;;;;;1.33;1.23;;;;;;;;;;6210129;22;20763;-43
2021/12/14 14:05:07;;;;;;;3.70;1.20;;;;;;;;;;6207958;22;20024;-44
2021/12/14 14:07:33;;;;;;;1.55;1.45;;;;;;;;;;6212984;22;20096;-45
2021/12/14 14:09:58;;;;;;;1.52;1.35;;;;;;;;;;6212738;22;20004;-44
2021/12/14 14:12:23;;;;;;;1.48;1.38;;;;;;;;;;6211976;22;20015;-44
2021/12/14 14:14:50;;;;;;;3.25;1.67;;;;;;;;;;6210275;22;20026;-44
2021/12/14 14:17:20;;;;;;;2.13;1.30;;;;;;;;;;6211184;22;20441;-44
2021/12/14 14:19:50;;;;;;;1.98;1.35;;;;;;;;;;6210880;22;20712;-44
2021/12/14 14:22:29;;;;;;;4.20;1.60;;;;;;;;;;6212128;22;20047;-43
2021/12/14 14:24:59;;;;;;;4.68;1.15;;;;;;;;;;6216496;22;20022;-44
2021/12/14 14:27:42;;;;;;;2.20;1.55;;;;;;;;;;6214180;22;20035;-43
2021/12/14 14:30:26;;;;;;;1.42;1.15;;;;;;;;;;6211843;22;20017;-43
2021/12/14 14:32:57;;;;;;;2.35;1.70;;;;;;;;;;6211869;22;20023;-43
2021/12/14 14:35:37;;;;;;;3.40;1.60;;;;;;;;;;6211969;22;20138;-43
2021/12/14 14:38:22;;;;;;;1.52;1.42;;;;;;;;;;6215615;22;20019;-43
2021/12/14 14:40:48;;;;;;;1.20;1.10;;;;;;;;;;6211496;22;20009;-43
2021/12/14 14:43:13;;;;;;;1.65;1.05;;;;;;;;;;6209495;22;20024;-44
2021/12/14 14:45:42;;;;;;;2.45;1.30;;;;;;;;;;6215205;22;20463;-44
2021/12/14 14:48:21;;;;;;;3.65;1.17;;;;;;;;;;6217074;22;20308;-44
2021/12/14 14:50:48;;;;;;;1.52;1.42;;;;;;;;;;6211104;22;20054;-44
2021/12/14 14:53:16;;;;;;;2.78;1.35;;;;;;;;;;6211535;22;20017;-44
2021/12/14 14:55:47;;;;;;;2.58;1.42;;;;;;;;;;6217218;22;20031;-44
2021/12/14 14:58:12;;;;;;;2.35;1.33;;;;;;;;;;6216890;22;20016;-44
2021/12/14 15:00:57;;;;;;;5.25;2.10;;;;;;;;;;6211704;22;20472;-45
2021/12/14 15:03:24;;;;;;;1.65;1.42;;;;;;;;;;6212535;22;20047;-43
2021/12/14 15:05:50;;;;;;;1.52;1.42;;;;;;;;;;6215775;22;20025;-44
2021/12/14 15:08:18;;;;;;;2.93;1.90;;;;;;;;;;6217259;22;20031;-42
2021/12/14 15:10:47;;;;;;;2.45;1.70;;;;;;;;;;6211132;22;20253;-45
2021/12/14 15:13:18;;;;;;;1.65;1.55;;;;;;;;;;6212061;22;20017;-44
2021/12/14 15:16:01;;;;;;;1.80;1.20;;;;;;;;;;6215521;22;20023;-45
2021/12/14 15:18:45;;;;;;;2.08;1.23;;;;;;;;;;6214283;22;20018;-45
2021/12/14 15:21:25;;;;;;;2.25;1.60;;;;;;;;;;6212486;22;20058;-46
2021/12/14 15:23:50;;;;;;;3.63;1.55;;;;;;;;;;6210247;22;20024;-45
2021/12/14 15:26:16;;;;;;;2.05;1.83;;;;;;;;;;6211206;22;20013;-43